Argonne, Minnesota
Current Conditions -  °F | °C
As of 2:25 PM on Friday 28 Nov 2014 (Local Time) from KLVN Reporting Station
Broken Clouds Broken Clouds  
Wind Chill: 12°   Ceiling: 1900
Heat Index: 21°   Visibility: 10mi
Dew Point: 16°   Wind: 8mph
Humidity: 80%   Direction: 110°ESE
Pressure: 29.84"   Gusts: NA
Location:  44.6349°N, 93.283°W
Report Text: KLVN 282025Z AUTO 11007KT 10SM BKN019 M06/M09 A2984 RMK AO2
Loading
Personal Weather Stations






























Interactive Weather Map New forecast layout! Learn more

10-Day Weather Forecast

Advertisements
Track Severe Weather on mobile